Time;durP1;ratioP1;P1;durP2;ratioP2;P2;SDS_P1;SDS_P2;PMS_P1;PMS_P2;Temp;Humidity;BMP_temperature;BMP_pressure;BME280_temperature;BME280_humidity;BME280_pressure;Samples;Min_cycle;Max_cycle;Signal;HPM_P1;HPM_P2
2021/11/24 00:05:24;;;;;;;23.40;20.17;;;;;;;;;;4315697;33;20510;-71
2021/11/24 00:07:55;;;;;;;27.73;20.40;;;;;;;;;;4361491;32;20065;-71
2021/11/24 00:10:41;;;;;;;;;;;;;;;;;;;;;
2021/11/24 00:13:38;;;;;;;25.60;19.23;;;;;;;;;;4362169;32;20035;-72
2021/11/24 00:16:03;;;;;;;;;;;;;;;;;;4315765;33;20071;-71
2021/11/24 00:18:38;;;;;;;24.70;17.35;;;;;;;;;;4357402;33;19954;-72
2021/11/24 00:21:16;;;;;;;26.73;18.27;;;;;;;;;;4361633;32;20039;-72
2021/11/24 00:23:41;;;;;;;20.95;18.50;;;;;;;;;;4347780;33;20039;-72
2021/11/24 00:26:06;;;;;;;;;;;;;;;;;;4363091;32;20111;-72
2021/11/24 00:28:48;;;;;;;23.62;16.52;;;;;;;;;;4361705;32;19961;-72
2021/11/24 00:31:18;;;;;;;22.45;17.08;;;;;;;;;;4362089;32;20311;-72
2021/11/24 00:33:56;;;;;;;22.37;15.38;;;;;;;;;;4361812;32;20066;-72
2021/11/24 00:39:20;;;;;;;20.00;17.12;;;;;;;;;;4361935;32;20081;-72
2021/11/24 00:41:45;;;;;;;;;;;;;;;;;;4362138;32;20031;-72
2021/11/24 00:44:34;;;;;;;24.90;16.05;;;;;;;;;;4361990;32;19939;-71
2021/11/24 00:46:59;;;;;;;22.33;16.48;;;;;;;;;;4361278;33;20100;-71
2021/11/24 00:49:24;;;;;;;;;;;;;;;;;;4361627;32;20131;-72
2021/11/24 00:52:00;;;;;;;;;;;;;;;;;;;;;
2021/11/24 00:54:36;;;;;;;;;;;;;;;;;;;;;
2021/11/24 00:57:02;;;;;;;19.90;16.10;;;;;;;;;;4361144;32;20027;-72
2021/11/24 00:59:48;;;;;;;23.35;15.02;;;;;;;;;;4361313;32;20518;-72
2021/11/24 01:02:14;;;;;;;22.30;15.50;;;;;;;;;;4359415;32;20023;-73
2021/11/24 01:04:39;;;;;;;;;;;;;;;;;;4360931;32;20066;-72
2021/11/24 01:07:08;;;;;;;22.50;15.63;;;;;;;;;;4360896;32;19946;-72
2021/11/24 01:09:34;;;;;;;17.48;13.80;;;;;;;;;;4361368;32;20551;-72
2021/11/24 01:11:59;;;;;;;;;;;;;;;;;;4361454;32;20031;-72
2021/11/24 01:14:27;;;;;;;18.45;14.43;;;;;;;;;;4360905;32;19958;-72
2021/11/24 01:16:52;;;;;;;24.95;16.15;;;;;;;;;;4347858;33;20168;-72
2021/11/24 01:19:18;;;;;;;;;;;;;;;;;;4360737;32;20055;-72
2021/11/24 01:21:44;;;;;;;22.40;15.98;;;;;;;;;;4361103;32;19943;-72
2021/11/24 01:24:09;;;;;;;;;;;;;;;;;;4361803;32;20059;-71
2021/11/24 01:26:34;;;;;;;21.65;15.60;;;;;;;;;;4361520;32;19949;-72
2021/11/24 01:29:00;;;;;;;;;;;;;;;;;;4361010;32;20141;-71
2021/11/24 01:31:25;;;;;;;16.98;13.50;;;;;;;;;;4360660;32;19973;-71
2021/11/24 01:33:50;;;;;;;;;;;;;;;;;;4360943;32;20050;-71
2021/11/24 01:36:15;;;;;;;22.00;15.60;;;;;;;;;;4360812;32;19992;-71
2021/11/24 01:38:40;;;;;;;;;;;;;;;;;;4360617;32;20160;-71
2021/11/24 01:41:06;;;;;;;25.94;14.44;;;;;;;;;;4361271;32;19953;-71
2021/11/24 01:43:31;;;;;;;;;;;;;;;;;;4360680;32;20069;-71
2021/11/24 01:45:56;;;;;;;21.42;15.43;;;;;;;;;;4360589;32;19935;-71
2021/11/24 01:48:21;;;;;;;;;;;;;;;;;;4360670;33;20120;-70
2021/11/24 01:50:46;;;;;;;22.65;15.40;;;;;;;;;;4360626;32;19938;-71
2021/11/24 01:53:12;;;;;;;;;;;;;;;;;;4360862;32;20150;-71
2021/11/24 01:55:37;;;;;;;17.92;14.15;;;;;;;;;;4361199;32;19934;-71
2021/11/24 01:58:02;;;;;;;;;;;;;;;;;;4361029;32;20140;-71
2021/11/24 02:00:30;;;;;;;26.52;16.75;;;;;;;;;;4359939;33;19946;-71
2021/11/24 02:02:56;;;;;;;26.45;17.45;;;;;;;;;;4360763;32;20450;-71
2021/11/24 02:05:22;;;;;;;32.33;19.17;;;;;;;;;;4346998;33;20467;-71
2021/11/24 02:07:47;;;;;;;;;;;;;;;;;;4360810;32;20023;-71
2021/11/24 02:10:13;;;;;;;26.45;17.30;;;;;;;;;;4360967;32;19939;-72
2021/11/24 02:12:38;;;;;;;;;;;;;;;;;;4361783;32;20092;-71
2021/11/24 02:15:04;;;;;;;21.08;17.10;;;;;;;;;;4359958;33;19949;-71
2021/11/24 02:17:51;;;;;;;21.75;16.45;;;;;;;;;;4360764;32;20054;-71
2021/11/24 02:20:34;;;;;;;24.60;18.27;;;;;;;;;;4359876;33;20049;-71
2021/11/24 02:23:04;;;;;;;25.77;19.77;;;;;;;;;;4360210;33;20389;-71
2021/11/24 02:25:30;;;;;;;25.15;19.17;;;;;;;;;;4360240;33;20027;-71
2021/11/24 02:27:55;;;;;;;;;;;;;;;;;;4360258;33;20038;-71
2021/11/24 02:30:20;;;;;;;25.08;19.08;;;;;;;;;;4360229;33;19939;-71
2021/11/24 02:32:45;;;;;;;;;;;;;;;;;;4360935;33;20069;-71
2021/11/24 02:35:11;;;;;;;22.36;18.06;;;;;;;;;;4360607;33;19939;-71
2021/11/24 02:37:36;;;;;;;;;;;;;;;;;;4346848;33;20394;-71
2021/11/24 02:40:03;;;;;;;29.84;21.82;;;;;;;;;;4359873;33;20262;-71
2021/11/24 02:42:28;;;;;;;29.90;20.45;;;;;;;;;;4359855;33;20095;-71
2021/11/24 02:44:54;;;;;;;;;;;;;;;;;;4347156;33;20019;-71
2021/11/24 02:47:21;;;;;;;32.28;21.37;;;;;;;;;;4360330;33;19953;-71
2021/11/24 02:49:49;;;;;;;23.62;17.20;;;;;;;;;;4360122;33;20035;-71
2021/11/24 02:52:36;;;;;;;29.02;20.62;;;;;;;;;;4346514;33;20028;-71
2021/11/24 02:55:01;;;;;;;25.62;17.98;;;;;;;;;;4359651;33;20042;-71
2021/11/24 02:57:37;;;;;;;31.77;20.60;;;;;;;;;;4360748;33;20053;-71
2021/11/24 03:00:14;;;;;;;25.17;18.10;;;;;;;;;;4360395;33;20074;-72
2021/11/24 03:02:40;;;;;;;25.42;19.00;;;;;;;;;;4359831;33;20055;-71
2021/11/24 03:05:05;;;;;;;;;;;;;;;;;;4360342;33;20070;-71
2021/11/24 03:07:33;;;;;;;28.75;21.33;;;;;;;;;;4359595;33;19992;-71
2021/11/24 03:09:58;;;;;;;27.10;20.70;;;;;;;;;;4359817;33;20016;-71
2021/11/24 03:12:26;;;;;;;;;;;;;;;;;;4360588;33;20019;-71
2021/11/24 03:14:53;;;;;;;27.55;19.70;;;;;;;;;;4360185;33;19938;-71
2021/11/24 03:17:19;;;;;;;30.85;21.10;;;;;;;;;;4346392;33;20424;-71
2021/11/24 03:20:03;;;;;;;;;;;;;;;;;;4360216;33;20027;-72
2021/11/24 03:22:28;;;;;;;30.92;22.48;;;;;;;;;;4345256;33;20328;-71
2021/11/24 03:24:56;;;;;;;;;;;;;;;;;;4345410;33;20086;-71
2021/11/24 03:27:23;;;;;;;33.03;23.62;;;;;;;;;;4347651;33;19955;-71
2021/11/24 03:29:48;;;;;;;32.25;23.65;;;;;;;;;;4356663;32;20031;-71
2021/11/24 03:32:14;;;;;;;;;;;;;;;;;;4362915;32;20074;-71
2021/11/24 03:34:41;;;;;;;36.58;27.67;;;;;;;;;;4362020;32;19969;-71
2021/11/24 03:37:07;;;;;;;36.60;26.10;;;;;;;;;;4348642;33;20138;-71
2021/11/24 03:39:32;;;;;;;;;;;;;;;;;;4362466;33;20071;-71
2021/11/24 03:41:57;;;;;;;36.35;24.83;;;;;;;;;;4362629;32;19942;-71
2021/11/24 03:44:23;;;;;;;;;;;;;;;;;;4362759;32;20046;-71
2021/11/24 03:46:48;;;;;;;34.72;26.10;;;;;;;;;;4348666;33;19974;-71
2021/11/24 03:49:13;;;;;;;;;;;;;;;;;;4349163;33;20516;-71
2021/11/24 03:51:38;;;;;;;44.45;29.23;;;;;;;;;;4362337;32;19970;-71
2021/11/24 03:54:04;;;;;;;;;;;;;;;;;;4348898;33;20085;-72
2021/11/24 03:56:29;;;;;;;34.00;26.10;;;;;;;;;;4362174;32;19953;-71
2021/11/24 03:58:54;;;;;;;;;;;;;;;;;;4361989;33;20046;-71
2021/11/24 04:01:19;;;;;;;38.38;27.48;;;;;;;;;;4362155;32;19962;-71
2021/11/24 04:03:44;;;;;;;;;;;;;;;;;;4362824;32;20203;-71
2021/11/24 04:06:10;;;;;;;37.45;27.60;;;;;;;;;;4362164;32;20273;-71
2021/11/24 04:08:35;;;;;;;;;;;;;;;;;;4362172;32;20111;-72
2021/11/24 04:11:00;;;;;;;35.90;26.58;;;;;;;;;;4362206;32;19938;-71
2021/11/24 04:13:25;;;;;;;;;;;;;;;;;;4361882;32;20024;-71
2021/11/24 04:15:51;;;;;;;32.85;26.15;;;;;;;;;;4361628;32;19977;-70
2021/11/24 04:18:16;;;;;;;;;;;;;;;;;;4362184;33;20112;-71
2021/11/24 04:20:42;;;;;;;37.25;27.05;;;;;;;;;;4361576;33;19953;-71
2021/11/24 04:23:07;;;;;;;;;;;;;;;;;;4362036;32;20127;-71
2021/11/24 04:25:32;;;;;;;32.35;26.52;;;;;;;;;;4362396;32;19970;-71
2021/11/24 04:28:01;;;;;;;;;;;;;;;;;;4361837;32;20162;-71
2021/11/24 04:30:30;;;;;;;33.80;27.40;;;;;;;;;;4347837;33;19934;-71
2021/11/24 04:32:55;;;;;;;38.13;30.02;;;;;;;;;;4361242;32;20035;-71
2021/11/24 04:35:20;;;;;;;;;;;;;;;;;;4361503;33;20074;-71
2021/11/24 04:37:47;;;;;;;38.65;28.87;;;;;;;;;;4346798;33;20006;-71
2021/11/24 04:40:12;;;;;;;41.25;29.42;;;;;;;;;;4346254;33;20024;-71
2021/11/24 04:42:42;;;;;;;;;;;;;;;;;;4346981;33;20058;-71
2021/11/24 04:45:08;;;;;;;39.10;29.60;;;;;;;;;;4346603;33;19938;-71
2021/11/24 04:47:33;;;;;;;;;;;;;;;;;;4347468;33;20043;-71
2021/11/24 04:50:12;;;;;;;47.80;32.05;;;;;;;;;;4354387;33;19966;-71
2021/11/24 04:52:57;;;;;;;47.65;32.80;;;;;;;;;;4361330;33;20011;-71
2021/11/24 04:55:22;;;;;;;49.47;34.22;;;;;;;;;;4354537;32;20073;-73
2021/11/24 04:57:47;;;;;;;;;;;;;;;;;;4362464;32;20102;-71
2021/11/24 05:00:18;;;;;;;47.70;33.80;;;;;;;;;;4361255;32;19953;-71
2021/11/24 05:02:44;;;;;;;45.92;34.97;;;;;;;;;;4360875;32;20430;-71
2021/11/24 05:05:09;;;;;;;;;;;;;;;;;;4361429;32;20093;-71
2021/11/24 05:07:43;;;;;;;39.47;30.23;;;;;;;;;;4361276;32;19934;-71
2021/11/24 05:10:27;;;;;;;48.97;35.90;;;;;;;;;;4361819;32;20116;-71
2021/11/24 05:12:55;;;;;;;46.05;34.47;;;;;;;;;;4361696;32;20069;-71
2021/11/24 05:15:30;;;;;;;51.88;34.03;;;;;;;;;;4360872;32;20028;-71
2021/11/24 05:17:59;;;;;;;42.50;33.70;;;;;;;;;;4361354;32;20011;-71
2021/11/24 05:20:28;;;;;;;46.15;34.75;;;;;;;;;;4360786;32;20023;-70
2021/11/24 05:22:54;;;;;;;46.65;35.67;;;;;;;;;;4360980;32;20032;-71
2021/11/24 05:25:19;;;;;;;;;;;;;;;;;;4361346;32;20157;-71
2021/11/24 05:28:03;;;;;;;44.67;34.13;;;;;;;;;;4360391;32;20355;-71
2021/11/24 05:30:37;;;;;;;47.58;32.97;;;;;;;;;;4336692;33;20178;-71
2021/11/24 05:33:03;;;;;;;45.67;34.00;;;;;;;;;;4361475;32;20072;-71
2021/11/24 05:35:28;;;;;;;;;;;;;;;;;;4360871;32;20436;-72
2021/11/24 05:37:54;;;;;;;44.97;33.67;;;;;;;;;;4346666;33;19946;-71
2021/11/24 05:40:19;;;;;;;;;;;;;;;;;;4361165;32;20130;-72
2021/11/24 05:42:54;;;;;;;46.97;36.33;;;;;;;;;;4361395;32;19984;-71
2021/11/24 05:48:08;;;;;;;53.75;38.30;;;;;;;;;;4360469;32;20404;-71
2021/11/24 05:50:43;;;;;;;57.35;37.97;;;;;;;;;;4347170;33;20015;-71
2021/11/24 05:53:27;;;;;;;55.55;40.12;;;;;;;;;;4360704;32;20098;-72
2021/11/24 05:56:15;;;;;;;49.78;38.05;;;;;;;;;;4360205;32;20110;-72
2021/11/24 05:58:40;;;;;;;56.37;38.92;;;;;;;;;;4360355;33;20065;-72
2021/11/24 06:01:05;;;;;;;;;;;;;;;;;;4360476;32;20386;-71
2021/11/24 06:04:06;;;;;;;56.80;38.78;;;;;;;;;;4360554;32;19990;-71
2021/11/24 06:06:34;;;;;;;54.88;39.53;;;;;;;;;;4361259;32;20131;-71
2021/11/24 06:08:59;;;;;;;52.13;39.75;;;;;;;;;;4360412;32;20063;-70
2021/11/24 06:11:24;;;;;;;;;;;;;;;;;;4360982;32;20410;-71
2021/11/24 06:13:50;;;;;;;66.00;42.38;;;;;;;;;;4360177;32;20267;-70
2021/11/24 06:22:22;;;;;;;65.25;45.33;;;;;;;;;;4305090;33;20051;-71
2021/11/24 06:24:53;;;;;;;63.17;43.85;;;;;;;;;;4299754;33;20055;-71
2021/11/24 06:27:18;;;;;;;61.75;46.00;;;;;;;;;;4345692;33;20089;-71
2021/11/24 06:29:43;;;;;;;;;;;;;;;;;;4348928;33;20109;-71
2021/11/24 06:32:09;;;;;;;70.43;44.83;;;;;;;;;;4360147;33;20410;-71
2021/11/24 06:34:34;;;;;;;;;;;;;;;;;;4360502;33;20031;-71
2021/11/24 06:37:44;;;;;;;;;;;;;;;;;;;;;
2021/11/24 06:40:10;;;;;;;68.95;47.80;;;;;;;;;;4343930;33;20047;-71
2021/11/24 06:42:35;;;;;;;;;;;;;;;;;;4360508;33;20070;-71
2021/11/24 06:45:01;;;;;;;77.47;50.47;;;;;;;;;;4346564;33;19949;-71
2021/11/24 06:47:29;;;;;;;;;;;;;;;;;;4360604;33;20397;-72
2021/11/24 06:49:59;;;;;;;67.82;47.05;;;;;;;;;;4360188;33;19993;-71
2021/11/24 06:52:27;;;;;;;75.53;49.80;;;;;;;;;;4360740;33;20028;-72
2021/11/24 06:54:55;;;;;;;71.90;50.25;;;;;;;;;;4359530;33;20191;-72
2021/11/24 06:57:20;;;;;;;75.80;50.85;;;;;;;;;;4359415;33;20032;-73
2021/11/24 06:59:45;;;;;;;;;;;;;;;;;;4359925;32;20035;-72
2021/11/24 07:02:11;;;;;;;84.57;53.72;;;;;;;;;;4360116;33;19985;-69
2021/11/24 07:04:36;;;;;;;;;;;;;;;;;;4362979;32;20027;-70
2021/11/24 07:07:24;;;;;;;85.05;56.13;;;;;;;;;;4362007;32;19947;-71
2021/11/24 07:09:50;;;;;;;81.18;51.63;;;;;;;;;;4352834;33;20047;-71
2021/11/24 07:12:18;;;;;;;;;;;;;;;;;;4348717;33;20038;-71
2021/11/24 07:14:54;;;;;;;84.87;52.15;;;;;;;;;;4361486;33;20386;-71
2021/11/24 07:17:22;;;;;;;79.62;51.05;;;;;;;;;;4349164;33;20059;-72
2021/11/24 07:19:51;;;;;;;85.28;54.63;;;;;;;;;;4362219;32;20081;-72
2021/11/24 07:22:17;;;;;;;75.72;50.85;;;;;;;;;;4362325;32;20089;-72
2021/11/24 07:24:42;;;;;;;;;;;;;;;;;;4363550;32;20031;-71
2021/11/24 07:27:07;;;;;;;83.93;53.75;;;;;;;;;;4348839;33;19992;-71
2021/11/24 07:29:39;;;;;;;;;;;;;;;;;;4362491;32;20143;-71
2021/11/24 07:32:10;;;;;;;75.50;51.05;;;;;;;;;;4362285;32;19939;-72
2021/11/24 07:34:35;;;;;;;75.40;50.25;;;;;;;;;;4359282;32;20039;-72
2021/11/24 07:37:21;;;;;;;;;;;;;;;;;;4362971;32;20028;-71
2021/11/24 07:39:50;;;;;;;79.50;51.78;;;;;;;;;;4362740;32;19938;-71
2021/11/24 07:42:20;;;;;;;84.13;55.55;;;;;;;;;;4362619;32;20090;-72
2021/11/24 07:45:05;;;;;;;92.85;54.03;;;;;;;;;;4347608;32;20028;-72
2021/11/24 07:47:33;;;;;;;79.05;52.62;;;;;;;;;;4352621;33;20471;-71
2021/11/24 07:49:58;;;;;;;83.20;54.03;;;;;;;;;;4362845;32;20026;-72
2021/11/24 07:52:23;;;;;;;;;;;;;;;;;;4361468;32;20069;-70
2021/11/24 07:54:49;;;;;;;83.65;55.38;;;;;;;;;;4362624;32;19988;-72
2021/11/24 07:57:14;;;;;;;;;;;;;;;;;;4362372;32;20033;-69
2021/11/24 07:59:39;;;;;;;84.43;55.47;;;;;;;;;;4362126;32;19966;-71
2021/11/24 08:02:14;;;;;;;;;;;;;;;;;;4362594;32;20139;-72
2021/11/24 08:04:39;;;;;;;82.20;53.08;;;;;;;;;;4348400;33;19966;-71
2021/11/24 08:07:04;;;;;;;;;;;;;;;;;;4362241;32;20414;-71
2021/11/24 08:09:48;;;;;;;77.05;52.40;;;;;;;;;;4361552;32;19943;-71
2021/11/24 08:12:13;;;;;;;72.68;49.17;;;;;;;;;;4361500;32;20039;-72
2021/11/24 08:14:38;;;;;;;;;;;;;;;;;;4362219;32;20059;-71
2021/11/24 08:20:18;;;;;;;74.10;48.55;;;;;;;;;;4340337;33;20588;-71
2021/11/24 08:22:43;;;;;;;;;;;;;;;;;;4347325;33;20035;-71
2021/11/24 08:25:08;;;;;;;77.75;51.05;;;;;;;;;;4346963;33;20001;-71
2021/11/24 08:27:33;;;;;;;;;;;;;;;;;;4347140;33;20143;-71
2021/11/24 08:30:02;;;;;;;66.28;45.58;;;;;;;;;;4359585;33;19946;-71
2021/11/24 08:32:37;;;;;;;77.43;47.92;;;;;;;;;;4361450;32;20039;-71
2021/11/24 08:35:23;;;;;;;68.72;45.97;;;;;;;;;;4361483;33;20073;-72
2021/11/24 08:37:49;;;;;;;74.50;47.20;;;;;;;;;;4361740;32;20093;-71
2021/11/24 08:40:14;;;;;;;;;;;;;;;;;;4361200;32;20040;-72
2021/11/24 08:42:50;;;;;;;74.28;45.17;;;;;;;;;;4361183;32;19974;-70
2021/11/24 08:45:18;;;;;;;57.50;42.50;;;;;;;;;;4361734;32;20054;-71
2021/11/24 08:47:47;;;;;;;57.50;40.55;;;;;;;;;;4347538;33;20375;-70
2021/11/24 08:50:49;;;;;;;54.20;39.13;;;;;;;;;;4359839;32;20039;-71
2021/11/24 08:53:22;;;;;;;54.45;38.83;;;;;;;;;;4361309;32;20055;-70
2021/11/24 08:56:05;;;;;;;59.53;39.95;;;;;;;;;;4360411;33;20053;-71
2021/11/24 08:58:40;;;;;;;58.63;38.15;;;;;;;;;;4361247;32;20088;-72
2021/11/24 09:01:18;;;;;;;55.97;38.25;;;;;;;;;;4347461;33;20031;-71
2021/11/24 09:03:55;;;;;;;49.55;34.28;;;;;;;;;;4357626;32;20055;-71
2021/11/24 09:06:20;;;;;;;47.42;34.28;;;;;;;;;;4360234;33;20112;-70
2021/11/24 09:08:45;;;;;;;;;;;;;;;;;;4361033;32;20028;-72
2021/11/24 09:11:16;;;;;;;44.60;30.92;;;;;;;;;;4360032;32;19948;-71
2021/11/24 09:13:42;;;;;;;51.58;31.58;;;;;;;;;;4361341;32;20141;-71
2021/11/24 09:16:16;;;;;;;;;;;;;;;;;;4361097;32;20035;-72
2021/11/24 09:18:45;;;;;;;41.05;28.62;;;;;;;;;;4360997;32;19938;-71
2021/11/24 09:21:19;;;;;;;41.95;29.60;;;;;;;;;;4361363;32;20075;-71
2021/11/24 09:24:03;;;;;;;41.55;28.12;;;;;;;;;;4360267;32;20049;-71
2021/11/24 09:26:54;;;;;;;35.78;27.17;;;;;;;;;;4356518;33;20086;-71
2021/11/24 09:29:38;;;;;;;32.33;25.83;;;;;;;;;;4360184;32;20093;-71
2021/11/24 09:32:17;;;;;;;28.10;23.00;;;;;;;;;;4349266;33;20103;-71
2021/11/24 09:34:42;;;;;;;30.23;22.35;;;;;;;;;;4360690;32;20409;-71
2021/11/24 09:37:16;;;;;;;;;;;;;;;;;;4361380;33;20058;-71
2021/11/24 09:39:42;;;;;;;32.90;21.52;;;;;;;;;;4360860;32;19931;-71
2021/11/24 09:42:07;;;;;;;;;;;;;;;;;;4360927;32;20069;-71
2021/11/24 09:44:32;;;;;;;33.22;21.23;;;;;;;;;;4360397;32;19994;-71
2021/11/24 09:46:58;;;;;;;;;;;;;;;;;;4360346;32;20166;-70
2021/11/24 09:49:23;;;;;;;27.27;20.98;;;;;;;;;;4360216;32;19954;-70
2021/11/24 09:51:55;;;;;;;;;;;;;;;;;;4360897;32;20484;-70
2021/11/24 09:57:08;;;;;;;23.83;18.45;;;;;;;;;;4361311;32;20050;-71
2021/11/24 09:59:33;;;;;;;23.58;17.33;;;;;;;;;;4360562;32;20035;-71
2021/11/24 10:01:58;;;;;;;;;;;;;;;;;;4339300;33;20501;-72
2021/11/24 10:04:24;;;;;;;21.33;15.52;;;;;;;;;;4353516;33;19985;-71
2021/11/24 10:06:49;;;;;;;;;;;;;;;;;;4354881;32;20406;-71
2021/11/24 10:09:22;;;;;;;20.02;15.32;;;;;;;;;;4357046;33;19981;-71
2021/11/24 10:11:47;;;;;;;25.42;15.48;;;;;;;;;;4353717;32;20046;-71
2021/11/24 10:14:18;;;;;;;;;;;;;;;;;;4353066;32;20058;-72
2021/11/24 10:16:50;;;;;;;18.52;14.68;;;;;;;;;;4357984;33;20007;-71
2021/11/24 10:19:15;;;;;;;21.05;14.02;;;;;;;;;;4361143;32;20023;-71
2021/11/24 10:21:40;;;;;;;;;;;;;;;;;;4346567;33;20054;-73
2021/11/24 10:24:13;;;;;;;17.98;13.45;;;;;;;;;;4358021;33;19988;-71
2021/11/24 10:26:39;;;;;;;24.63;14.52;;;;;;;;;;4354084;33;20647;-70
2021/11/24 10:29:06;;;;;;;;;;;;;;;;;;4359913;33;20073;-71
2021/11/24 10:31:45;;;;;;;19.15;14.38;;;;;;;;;;4359542;32;19989;-71
2021/11/24 10:34:19;;;;;;;18.05;13.62;;;;;;;;;;4360357;32;20035;-71
2021/11/24 10:37:07;;;;;;;18.73;12.77;;;;;;;;;;4363545;32;20086;-71
2021/11/24 10:39:32;;;;;;;;;;;;;;;;;;4348851;33;20032;-71
2021/11/24 10:42:03;;;;;;;20.48;11.88;;;;;;;;;;4335423;33;20432;-72
2021/11/24 10:44:29;;;;;;;23.70;12.20;;;;;;;;;;4360646;32;20414;-72
2021/11/24 10:46:54;;;;;;;;;;;;;;;;;;4362903;32;20032;-71
2021/11/24 10:49:29;;;;;;;15.20;8.68;;;;;;;;;;4363282;32;19993;-71
2021/11/24 10:51:57;;;;;;;13.70;10.10;;;;;;;;;;4353568;32;20042;-71
2021/11/24 10:54:25;;;;;;;13.10;8.82;;;;;;;;;;4338384;33;20372;-71
2021/11/24 10:57:07;;;;;;;17.37;9.75;;;;;;;;;;4362296;32;20425;-71
2021/11/24 10:59:34;;;;;;;13.80;8.75;;;;;;;;;;4362306;33;20055;-71
2021/11/24 11:02:14;;;;;;;13.30;8.85;;;;;;;;;;4361671;32;20063;-72
2021/11/24 11:07:49;;;;;;;18.60;9.10;;;;;;;;;;4360538;33;20090;-72
2021/11/24 11:10:14;;;;;;;12.88;8.55;;;;;;;;;;4362395;32;20471;-72
2021/11/24 11:12:40;;;;;;;;;;;;;;;;;;4363655;32;20079;-72
2021/11/24 11:15:31;;;;;;;14.55;8.68;;;;;;;;;;4361678;32;19996;-72
2021/11/24 11:17:57;;;;;;;15.25;9.50;;;;;;;;;;4362406;32;20035;-71
2021/11/24 11:20:22;;;;;;;;;;;;;;;;;;4362525;32;20058;-72
2021/11/24 11:23:08;;;;;;;12.50;7.95;;;;;;;;;;4349838;33;19954;-72
2021/11/24 11:25:53;;;;;;;9.95;8.13;;;;;;;;;;4338316;33;20588;-72
2021/11/24 11:28:42;;;;;;;11.10;7.70;;;;;;;;;;4360830;32;20043;-72
2021/11/24 11:31:20;;;;;;;14.38;11.43;;;;;;;;;;4301500;33;20221;-72
2021/11/24 11:34:03;;;;;;;9.45;7.65;;;;;;;;;;4357885;33;20039;-71
2021/11/24 11:36:33;;;;;;;10.60;8.15;;;;;;;;;;4357277;32;20036;-71
2021/11/24 11:39:00;;;;;;;13.75;8.48;;;;;;;;;;4361772;33;20098;-70
2021/11/24 11:41:36;;;;;;;13.85;8.75;;;;;;;;;;4362006;32;20089;-69
2021/11/24 11:44:03;;;;;;;11.77;7.87;;;;;;;;;;4358419;32;20098;-71
2021/11/24 11:46:40;;;;;;;13.18;8.32;;;;;;;;;;4361378;32;20087;-71
2021/11/24 11:49:12;;;;;;;11.52;7.75;;;;;;;;;;4362211;32;20102;-71
2021/11/24 11:51:39;;;;;;;8.27;6.62;;;;;;;;;;4359568;32;20142;-71
2021/11/24 11:54:06;;;;;;;13.02;7.60;;;;;;;;;;4360928;33;20066;-72
2021/11/24 11:56:34;;;;;;;16.85;7.80;;;;;;;;;;4361963;32;20405;-71
2021/11/24 11:59:04;;;;;;;14.87;7.85;;;;;;;;;;4347723;33;20063;-72
2021/11/24 12:01:31;;;;;;;14.73;8.13;;;;;;;;;;4362522;32;20070;-71
2021/11/24 12:07:02;;;;;;;13.95;7.57;;;;;;;;;;4315493;33;20058;-70
2021/11/24 12:09:35;;;;;;;13.98;7.72;;;;;;;;;;4315948;33;20102;-71
2021/11/24 12:12:10;;;;;;;8.45;6.62;;;;;;;;;;4347233;33;20039;-71
2021/11/24 12:14:42;;;;;;;10.88;6.43;;;;;;;;;;4347926;33;20069;-72
2021/11/24 12:17:26;;;;;;;15.82;7.55;;;;;;;;;;4361459;32;20061;-70
2021/11/24 12:19:52;;;;;;;15.35;7.65;;;;;;;;;;4360667;32;20047;-71
2021/11/24 12:22:17;;;;;;;;;;;;;;;;;;4361436;33;20311;-71
2021/11/24 12:24:45;;;;;;;14.57;6.87;;;;;;;;;;4347269;33;19935;-70
2021/11/24 12:27:13;;;;;;;11.00;6.30;;;;;;;;;;4347356;33;20027;-73
2021/11/24 12:29:42;;;;;;;9.52;6.53;;;;;;;;;;4364999;32;20120;-71
2021/11/24 12:32:08;;;;;;;10.15;6.37;;;;;;;;;;4376200;32;20038;-72
2021/11/24 12:34:35;;;;;;;;;;;;;;;;;;4367129;32;20503;-71
2021/11/24 12:37:19;;;;;;;14.38;7.60;;;;;;;;;;4357204;33;19950;-71
2021/11/24 12:39:44;;;;;;;10.15;6.87;;;;;;;;;;4361297;32;20070;-71
2021/11/24 12:42:11;;;;;;;;;;;;;;;;;;4361640;32;20417;-71
2021/11/24 12:44:52;;;;;;;;;;;;;;;;;;;;;
2021/11/24 12:47:22;;;;;;;8.32;5.30;;;;;;;;;;4360520;33;20077;-72
2021/11/24 12:49:48;;;;;;;7.53;5.47;;;;;;;;;;4361148;32;20036;-71
2021/11/24 12:52:13;;;;;;;;;;;;;;;;;;4361642;32;20082;-71
2021/11/24 12:55:05;;;;;;;9.27;4.80;;;;;;;;;;4360940;32;20072;-71
2021/11/24 12:57:37;;;;;;;6.57;5.18;;;;;;;;;;4359043;32;20027;-71
2021/11/24 13:00:02;;;;;;;7.22;4.57;;;;;;;;;;4361082;32;20049;-71
2021/11/24 13:02:28;;;;;;;;;;;;;;;;;;4360365;33;20346;-73
2021/11/24 13:04:53;;;;;;;6.93;4.50;;;;;;;;;;4360408;33;19946;-72
2021/11/24 13:07:19;;;;;;;;;;;;;;;;;;4359264;32;20468;-70
2021/11/24 13:09:45;;;;;;;5.85;3.80;;;;;;;;;;4357588;32;19980;-71
2021/11/24 13:12:11;;;;;;;;;;;;;;;;;;4360042;32;20440;-70
2021/11/24 13:14:41;;;;;;;8.43;4.60;;;;;;;;;;4360488;32;19938;-69
2021/11/24 13:17:11;;;;;;;8.15;3.90;;;;;;;;;;4361056;32;20060;-70
2021/11/24 13:19:36;;;;;;;7.70;4.55;;;;;;;;;;4358731;32;20027;-71
2021/11/24 13:22:01;;;;;;;;;;;;;;;;;;4360295;33;20097;-71
2021/11/24 13:24:27;;;;;;;6.95;3.70;;;;;;;;;;4360769;33;19949;-70
2021/11/24 13:26:52;;;;;;;;;;;;;;;;;;4355050;32;20079;-70
2021/11/24 13:29:18;;;;;;;6.07;4.25;;;;;;;;;;4349146;32;20321;-72
2021/11/24 13:31:43;;;;;;;;;;;;;;;;;;4351820;32;20108;-70
2021/11/24 13:34:09;;;;;;;8.60;4.90;;;;;;;;;;4354280;32;20009;-71
2021/11/24 13:36:34;;;;;;;;;;;;;;;;;;4356230;32;20136;-72
2021/11/24 13:39:08;;;;;;;6.80;5.05;;;;;;;;;;4359241;32;20027;-70
2021/11/24 13:41:35;;;;;;;9.60;5.00;;;;;;;;;;4360178;32;20053;-70
2021/11/24 13:44:05;;;;;;;8.57;5.80;;;;;;;;;;4360477;32;20030;-71
2021/11/24 13:46:39;;;;;;;6.65;5.10;;;;;;;;;;4345154;33;20071;-70
2021/11/24 13:49:24;;;;;;;7.07;4.55;;;;;;;;;;4346218;33;20438;-71
2021/11/24 13:52:09;;;;;;;6.80;4.70;;;;;;;;;;4356624;33;20091;-71
2021/11/24 13:54:58;;;;;;;7.25;5.22;;;;;;;;;;4343086;33;20429;-71
2021/11/24 13:57:30;;;;;;;6.12;4.32;;;;;;;;;;4335358;33;20111;-70
2021/11/24 14:00:01;;;;;;;5.57;4.00;;;;;;;;;;4346258;33;20045;-70
2021/11/24 14:02:47;;;;;;;6.62;4.30;;;;;;;;;;4359662;32;20057;-70
2021/11/24 14:05:14;;;;;;;6.28;4.45;;;;;;;;;;4357165;33;20347;-71
2021/11/24 14:08:02;;;;;;;7.10;4.12;;;;;;;;;;4358780;32;20023;-71
2021/11/24 14:10:34;;;;;;;12.07;4.93;;;;;;;;;;4346133;32;20394;-71
2021/11/24 14:13:01;;;;;;;7.68;4.10;;;;;;;;;;4352767;33;20027;-71
2021/11/24 14:15:27;;;;;;;5.25;3.80;;;;;;;;;;4359370;32;20066;-71
2021/11/24 14:17:53;;;;;;;;;;;;;;;;;;4359910;32;20035;-70
2021/11/24 14:20:18;;;;;;;4.70;3.30;;;;;;;;;;4349912;33;19949;-71
2021/11/24 14:22:43;;;;;;;;;;;;;;;;;;4360072;33;20040;-71
2021/11/24 14:25:10;;;;;;;4.95;3.25;;;;;;;;;;4360418;32;19939;-70
2021/11/24 14:27:35;;;;;;;7.50;3.83;;;;;;;;;;4360775;33;20032;-71
2021/11/24 14:30:00;;;;;;;;;;;;;;;;;;4358914;33;20112;-70
2021/11/24 14:32:26;;;;;;;3.72;2.90;;;;;;;;;;4359973;33;20014;-70
2021/11/24 14:34:51;;;;;;;;;;;;;;;;;;4359686;33;20136;-71
2021/11/24 14:37:16;;;;;;;8.70;3.00;;;;;;;;;;4360245;33;19934;-70
2021/11/24 14:39:44;;;;;;;;;;;;;;;;;;4359642;33;20047;-70
2021/11/24 14:42:09;;;;;;;8.55;4.60;;;;;;;;;;4359532;33;19939;-70
2021/11/24 14:44:34;;;;;;;;;;;;;;;;;;4359880;33;20075;-71
2021/11/24 14:47:00;;;;;;;4.28;3.20;;;;;;;;;;4359346;33;19942;-72
2021/11/24 14:49:26;;;;;;;;;;;;;;;;;;4347509;33;20158;-71
2021/11/24 14:51:51;;;;;;;3.95;3.53;;;;;;;;;;4360034;33;19938;-71
2021/11/24 14:54:16;;;;;;;;;;;;;;;;;;4359586;33;20065;-70
2021/11/24 14:56:43;;;;;;;6.43;4.82;;;;;;;;;;4359290;33;19946;-71
2021/11/24 14:59:08;;;;;;;9.20;3.42;;;;;;;;;;4358749;33;20077;-71
2021/11/24 15:01:33;;;;;;;;;;;;;;;;;;4360066;33;20040;-71
2021/11/24 15:04:06;;;;;;;4.65;3.40;;;;;;;;;;4346017;33;19984;-70
2021/11/24 15:06:31;;;;;;;4.97;3.45;;;;;;;;;;4353447;33;20080;-71
2021/11/24 15:08:56;;;;;;;;;;;;;;;;;;4359347;33;20036;-71
2021/11/24 15:11:22;;;;;;;6.43;3.60;;;;;;;;;;4359683;33;19971;-70
2021/11/24 15:13:48;;;;;;;;;;;;;;;;;;4359594;33;20031;-70
2021/11/24 15:16:15;;;;;;;4.08;2.84;;;;;;;;;;4359006;33;20355;-71
2021/11/24 15:18:40;;;;;;;3.15;2.33;;;;;;;;;;4359466;33;20093;-69
2021/11/24 15:21:05;;;;;;;;;;;;;;;;;;4359651;32;20042;-70
2021/11/24 15:23:31;;;;;;;3.22;2.30;;;;;;;;;;4362522;32;19975;-71
2021/11/24 15:25:59;;;;;;;;;;;;;;;;;;4362726;32;20426;-70
2021/11/24 15:28:24;;;;;;;7.65;3.92;;;;;;;;;;4362215;32;19946;-70
2021/11/24 15:30:49;;;;;;;;;;;;;;;;;;4362368;32;20177;-71
2021/11/24 15:33:25;;;;;;;;;;;;;;;;;;;;;
2021/11/24 15:35:52;;;;;;;7.60;2.95;;;;;;;;;;4363312;32;20039;-70
2021/11/24 15:38:17;;;;;;;4.45;3.00;;;;;;;;;;4361781;33;20062;-70
2021/11/24 15:40:43;;;;;;;;;;;;;;;;;;4362209;32;20406;-70
2021/11/24 15:43:08;;;;;;;5.80;3.12;;;;;;;;;;4354013;33;19997;-71
2021/11/24 15:45:33;;;;;;;;;;;;;;;;;;4362668;32;20027;-70
2021/11/24 15:47:59;;;;;;;7.55;4.45;;;;;;;;;;4368534;32;20032;-70
2021/11/24 15:50:27;;;;;;;;;;;;;;;;;;4358459;32;20048;-68